createdAt,value
2018-04-17T00:02:16.302Z,91.10
2018-04-17T00:04:46.392Z,91.10
2018-04-17T00:07:21.363Z,90.92
2018-04-17T00:09:50.866Z,90.87
2018-04-17T00:12:23.333Z,90.83
2018-04-17T00:14:53.395Z,91.07
2018-04-17T00:17:24.264Z,91.13
2018-04-17T00:19:54.408Z,91.17
2018-04-17T00:22:24.448Z,91.39
2018-04-17T00:24:52.825Z,91.39
2018-04-17T00:27:22.888Z,91.36
2018-04-17T00:29:53.588Z,91.14
2018-04-17T00:32:22.020Z,91.03
2018-04-17T00:34:52.020Z,91.02
2018-04-17T00:37:22.116Z,90.88
2018-04-17T00:39:52.137Z,90.61
2018-04-17T01:21:19.023Z,90.86
2018-04-17T01:23:49.144Z,90.83
2018-04-17T01:26:19.265Z,90.51
2018-04-17T01:28:47.652Z,90.50
2018-04-17T01:31:16.011Z,90.81
2018-04-17T01:33:51.846Z,90.67
2018-04-17T01:36:22.417Z,90.63
2018-04-17T01:38:54.880Z,90.53
2018-04-17T01:41:28.030Z,90.49
2018-04-17T01:43:58.119Z,90.28
2018-04-17T01:46:26.539Z,90.51
2018-04-17T01:48:54.967Z,90.74
2018-04-17T01:51:23.971Z,91.03
2018-04-17T01:53:53.978Z,91.01
2018-04-17T01:56:24.110Z,90.76
2018-04-17T01:58:52.476Z,90.61
2018-04-17T02:01:24.499Z,90.56
2018-04-17T02:06:33.912Z,90.10
2018-04-17T02:09:02.393Z,90.05
2018-04-17T02:11:33.424Z,89.89
2018-04-17T02:14:02.427Z,89.92
2018-04-17T02:16:32.584Z,90.11
2018-04-17T02:19:00.938Z,91.67
2018-04-17T02:21:31.114Z,92.29
2018-04-17T02:24:01.145Z,92.47
2018-04-17T02:26:29.665Z,92.33
2018-04-17T02:28:59.701Z,92.02
2018-04-17T02:31:28.799Z,92.03
2018-04-17T02:33:57.061Z,91.83
2018-04-17T02:36:26.987Z,91.58
2018-04-17T02:38:55.356Z,91.51
2018-04-17T02:41:24.483Z,91.83
2018-04-17T02:43:54.497Z,92.10
2018-04-17T02:46:24.572Z,91.64
2018-04-17T02:48:55.558Z,91.60
2018-04-17T02:51:24.029Z,91.54
2018-04-17T02:53:54.021Z,91.30
2018-04-17T02:56:28.968Z,90.87
2018-04-17T02:58:58.160Z,90.85
2018-04-17T03:01:27.185Z,91.59
2018-04-17T03:03:57.115Z,92.01
2018-04-17T03:06:27.052Z,92.38
2018-04-17T03:08:56.053Z,92.44
2018-04-17T03:11:26.075Z,92.59
2018-04-17T03:13:56.190Z,92.52
2018-04-17T03:16:24.527Z,92.60
2018-04-17T03:18:54.532Z,92.44
2018-04-17T03:21:24.667Z,92.17
2018-04-17T03:23:55.433Z,92.18
2018-04-17T03:26:25.533Z,92.36
2018-04-17T03:28:55.625Z,92.32
2018-04-17T03:31:26.596Z,92.11
2018-04-17T03:33:54.887Z,91.95
2018-04-17T03:36:25.820Z,91.85
2018-04-17T03:38:54.305Z,92.27
2018-04-17T03:41:22.781Z,92.09
2018-04-17T03:43:53.954Z,91.97
2018-04-17T03:46:23.931Z,91.72
2018-04-17T03:48:54.070Z,91.72
2018-04-17T03:51:22.440Z,91.70
2018-04-17T03:53:53.415Z,91.42
2018-04-17T03:56:23.484Z,91.51
2018-04-17T03:58:52.513Z,91.61
2018-04-17T04:01:22.464Z,91.54
2018-04-17T04:03:53.483Z,91.50
2018-04-17T04:06:23.478Z,91.59
2018-04-17T04:08:54.457Z,91.42
2018-04-17T04:11:24.477Z,91.12
2018-04-17T04:13:54.466Z,90.98
2018-04-17T04:16:36.453Z,90.82
2018-04-17T04:19:17.115Z,91.75
2018-04-17T04:21:58.284Z,91.99
2018-04-17T04:24:38.789Z,91.66
2018-04-17T04:27:09.841Z,91.54
2018-04-17T04:29:42.799Z,91.83
2018-04-17T04:32:12.287Z,92.05
2018-04-17T04:34:40.756Z,92.36
2018-04-17T04:37:09.973Z,93.73
2018-04-17T04:39:39.995Z,94.51
2018-04-17T04:42:10.963Z,94.87
2018-04-17T04:44:39.416Z,94.83
2018-04-17T04:47:08.531Z,94.86
2018-04-17T04:49:41.897Z,94.97
2018-04-17T04:54:47.805Z,95.38
2018-04-17T04:57:16.374Z,95.38
2018-04-17T04:59:44.650Z,95.34
2018-04-17T05:02:14.668Z,95.23
2018-04-17T05:04:46.051Z,94.89
2018-04-17T05:07:16.169Z,94.70
2018-04-17T05:09:49.331Z,94.40
2018-04-17T05:12:17.715Z,94.10
2018-04-17T05:17:43.008Z,93.29
2018-04-17T05:20:11.357Z,93.10
2018-04-17T05:22:39.631Z,93.32
2018-04-17T05:25:07.911Z,93.52
2018-04-17T05:27:36.148Z,93.15
2018-04-17T05:30:04.457Z,93.44
2018-04-17T05:32:32.649Z,93.04
2018-04-17T05:35:01.058Z,93.22
2018-04-17T05:37:29.279Z,93.13
2018-04-17T05:39:57.491Z,93.01
2018-04-17T05:42:25.728Z,93.21
2018-04-17T05:44:53.936Z,93.61
2018-04-17T05:47:22.191Z,93.76
2018-04-17T05:49:50.561Z,93.96
2018-04-17T05:52:18.789Z,94.16
2018-04-17T05:54:47.081Z,94.22
2018-04-17T05:57:15.286Z,94.04
2018-04-17T05:59:43.485Z,93.77
2018-04-17T06:02:11.771Z,93.85
2018-04-17T06:04:39.943Z,93.73
2018-04-17T06:07:08.157Z,93.72
2018-04-17T06:09:36.373Z,93.78
2018-04-17T06:12:04.585Z,94.01
2018-04-17T06:14:34.455Z,94.38
2018-04-17T06:17:03.139Z,94.27
2018-04-17T06:19:31.928Z,94.50
2018-04-17T06:22:00.510Z,94.59
2018-04-17T06:24:29.224Z,94.67
2018-04-17T06:26:58.929Z,94.62
2018-04-17T06:29:27.735Z,94.27
2018-04-17T06:31:57.328Z,93.80
2018-04-17T06:34:26.120Z,93.42
2018-04-17T06:36:55.563Z,92.88
2018-04-17T06:39:24.165Z,92.53
2018-04-17T06:41:53.116Z,92.38
2018-04-17T06:44:24.651Z,92.51
2018-04-17T06:46:54.038Z,93.03
2018-04-17T06:49:22.863Z,93.18
2018-04-17T06:51:51.651Z,93.32
2018-04-17T06:54:20.336Z,93.48
2018-04-17T06:56:52.679Z,93.52
2018-04-17T06:59:21.372Z,93.42
2018-04-17T07:01:49.950Z,93.44
2018-04-17T07:04:18.634Z,92.98
2018-04-17T07:06:46.828Z,92.66
2018-04-17T07:09:15.711Z,93.21
2018-04-17T07:11:46.802Z,92.55
2018-04-17T07:14:18.437Z,92.21
2018-04-17T07:16:49.865Z,90.62
2018-04-17T07:19:20.324Z,90.12
2018-04-17T07:21:48.978Z,89.87
2018-04-17T07:24:18.374Z,89.63
2018-04-17T07:26:47.176Z,89.62
2018-04-17T07:29:15.742Z,89.03
2018-04-17T07:31:44.512Z,88.96
2018-04-17T07:34:13.133Z,89.38
2018-04-17T07:36:41.830Z,89.27
2018-04-17T07:39:12.671Z,88.32
2018-04-17T07:41:42.556Z,87.65
2018-04-17T07:44:12.653Z,87.48
2018-04-17T07:46:44.368Z,87.29
2018-04-17T07:49:13.954Z,87.90
2018-04-17T07:51:42.626Z,87.45
2018-04-17T07:54:11.469Z,86.98
2018-04-17T07:56:40.064Z,87.16
2018-04-17T07:59:09.624Z,87.49
2018-04-17T08:01:39.053Z,86.77
2018-04-17T08:04:07.754Z,85.36
2018-04-17T08:06:39.611Z,84.16
2018-04-17T08:09:09.131Z,84.13
2018-04-17T08:11:38.503Z,83.72
2018-04-17T08:14:08.265Z,83.63
2018-04-17T08:16:36.978Z,83.18
2018-04-17T08:19:05.449Z,82.37
2018-04-17T08:21:35.753Z,82.18
2018-04-17T08:24:04.925Z,81.92
2018-04-17T08:26:33.893Z,81.33
2018-04-17T08:29:03.037Z,81.17
2018-04-17T08:31:31.743Z,81.01
2018-04-17T08:34:00.520Z,81.24
2018-04-17T08:36:29.228Z,80.98
2018-04-17T08:38:59.838Z,80.43
2018-04-17T08:41:29.141Z,79.50
2018-04-17T08:43:57.852Z,79.35
2018-04-17T08:46:29.275Z,79.86
2018-04-17T08:48:57.983Z,79.41
2018-04-17T08:51:27.374Z,79.07
2018-04-17T08:53:55.995Z,76.58
2018-04-17T08:56:24.976Z,75.65
2018-04-17T08:58:54.718Z,75.79
2018-04-17T09:01:23.490Z,76.33
2018-04-17T09:03:54.606Z,73.75
2018-04-17T09:06:23.227Z,73.61
2018-04-17T09:08:52.011Z,73.95
2018-04-17T09:11:21.943Z,74.00
2018-04-17T09:13:50.476Z,73.85
2018-04-17T09:16:20.796Z,74.13
2018-04-17T09:18:51.963Z,74.15
2018-04-17T09:21:22.872Z,71.56
2018-04-17T09:23:51.712Z,72.82
2018-04-17T09:26:21.375Z,72.34
2018-04-17T09:28:50.463Z,69.58
2018-04-17T09:31:19.549Z,69.67
2018-04-17T09:33:48.545Z,69.79
2018-04-17T09:36:17.237Z,68.63
2018-04-17T09:38:46.965Z,68.69
2018-04-17T09:41:15.831Z,69.19
2018-04-17T09:43:44.529Z,68.65
2018-04-17T09:46:14.353Z,67.78
2018-04-17T09:48:45.587Z,67.15
2018-04-17T09:51:17.252Z,65.74
2018-04-17T09:53:46.035Z,63.83
2018-04-17T09:56:14.736Z,65.96
2018-04-17T09:58:43.725Z,65.94
2018-04-17T10:01:17.924Z,65.53
2018-04-17T10:03:46.522Z,64.31
2018-04-17T10:06:15.461Z,63.85
2018-04-17T10:08:45.191Z,64.76
2018-04-17T10:11:16.478Z,61.27
2018-04-17T10:13:47.136Z,59.52
2018-04-17T10:16:17.152Z,62.65
2018-04-17T10:18:48.801Z,63.48
2018-04-17T10:21:18.726Z,62.56
2018-04-17T10:23:50.074Z,62.38
2018-04-17T10:26:18.896Z,60.75
2018-04-17T10:28:49.683Z,62.54
2018-04-17T10:31:19.090Z,59.13
2018-04-17T10:33:50.654Z,60.65
2018-04-17T10:36:21.148Z,59.64
2018-04-17T10:38:50.975Z,58.88
2018-04-17T10:41:22.569Z,59.51
2018-04-17T10:43:51.369Z,58.63
2018-04-17T10:46:19.949Z,56.52
2018-04-17T10:48:48.903Z,59.03
2018-04-17T10:51:19.074Z,59.08
2018-04-17T11:06:48.767Z,51.00
2018-04-17T11:09:18.466Z,50.99
2018-04-17T11:11:47.063Z,51.89
2018-04-17T11:14:15.748Z,50.87
2018-04-17T11:16:44.627Z,52.52
2018-04-17T11:19:14.262Z,51.30
2018-04-17T11:21:43.870Z,53.07
2018-04-17T11:24:13.152Z,50.73
2018-04-17T11:26:41.783Z,50.56
2018-04-17T11:29:10.465Z,50.14
2018-04-17T11:31:39.158Z,51.50
2018-04-17T11:34:08.154Z,51.24
2018-04-17T11:36:38.841Z,53.12
2018-04-17T11:39:11.139Z,52.61
2018-04-17T11:41:39.740Z,51.83
2018-04-17T11:44:09.140Z,52.28
2018-04-17T11:46:37.926Z,53.58
2018-04-17T11:49:08.565Z,51.88
2018-04-17T11:51:37.237Z,50.84
2018-04-17T11:54:05.889Z,53.31
2018-04-17T11:56:35.329Z,52.51
2018-04-17T11:59:04.839Z,51.97
2018-04-17T12:01:35.945Z,53.61
2018-04-17T12:04:11.347Z,50.79
2018-04-17T12:06:41.159Z,51.65
2018-04-17T12:09:11.373Z,49.90
2018-04-17T12:11:43.457Z,48.69
2018-04-17T12:14:12.350Z,49.05
2018-04-17T12:16:41.454Z,47.97
2018-04-17T12:19:10.351Z,49.36
2018-04-17T12:21:38.929Z,47.15
2018-04-17T12:24:07.594Z,47.15
2018-04-17T12:26:37.335Z,48.32
2018-04-17T12:29:05.595Z,47.65
2018-04-17T12:31:36.773Z,49.46
2018-04-17T12:34:08.581Z,51.05
2018-04-17T12:36:39.324Z,51.57
2018-04-17T12:39:07.906Z,51.94
2018-04-17T12:41:36.510Z,50.90
2018-04-17T12:44:06.185Z,52.51
2018-04-17T12:46:34.936Z,51.77
2018-04-17T12:49:03.622Z,53.28
2018-04-17T12:51:32.428Z,52.88
2018-04-17T12:54:01.109Z,52.78
2018-04-17T12:56:32.303Z,53.54
2018-04-17T12:59:03.778Z,53.02
2018-04-17T13:01:35.083Z,53.51
2018-04-17T13:04:04.879Z,52.76
2018-04-17T13:06:33.556Z,50.89
2018-04-17T13:09:02.355Z,51.68
2018-04-17T13:11:30.957Z,51.15
2018-04-17T13:13:59.629Z,49.96
2018-04-17T13:16:28.321Z,50.21
2018-04-17T13:18:58.824Z,50.07
2018-04-17T13:21:27.468Z,47.10
2018-04-17T13:23:56.133Z,49.17
2018-04-17T13:26:24.843Z,46.96
2018-04-17T13:28:53.516Z,49.25
2018-04-17T13:31:24.861Z,49.04
2018-04-17T13:33:54.619Z,47.14
2018-04-17T13:36:23.508Z,46.17
2018-04-17T13:38:52.036Z,47.41
2018-04-17T13:41:20.801Z,45.92
2018-04-17T13:43:49.509Z,46.50
2018-04-17T13:46:19.786Z,45.40
2018-04-17T13:48:48.368Z,45.51
2018-04-17T13:51:16.880Z,46.56
2018-04-17T13:53:45.631Z,45.24
2018-04-17T13:56:15.311Z,45.71
2018-04-17T13:58:44.133Z,44.32
2018-04-17T14:01:13.997Z,46.49
2018-04-17T14:03:43.095Z,47.25
2018-04-17T14:06:14.329Z,47.03
2018-04-17T14:08:42.971Z,47.00
2018-04-17T14:11:12.792Z,46.27
2018-04-17T14:13:41.390Z,46.75
2018-04-17T14:16:14.512Z,46.38
2018-04-17T14:18:43.373Z,44.81
2018-04-17T14:21:12.236Z,43.04
2018-04-17T14:23:40.905Z,41.50
2018-04-17T14:26:09.747Z,40.71
2018-04-17T14:28:38.312Z,43.27
2018-04-17T14:31:07.592Z,42.74
2018-04-17T14:33:38.556Z,37.92
2018-04-17T14:36:08.920Z,39.18
2018-04-17T14:38:37.597Z,38.33
2018-04-17T14:41:06.499Z,37.09
2018-04-17T14:43:35.363Z,36.64
2018-04-17T14:46:04.283Z,38.64
2018-04-17T14:48:33.590Z,36.68
2018-04-17T14:51:02.372Z,36.91
2018-04-17T14:53:32.348Z,36.45
2018-04-17T14:56:02.021Z,34.91
2018-04-17T14:58:30.676Z,35.50
2018-04-17T15:01:03.176Z,35.95
2018-04-17T15:03:32.222Z,35.40
2018-04-17T15:06:03.338Z,36.41
2018-04-17T15:08:33.129Z,33.98
2018-04-17T15:11:03.067Z,34.41
2018-04-17T15:13:34.504Z,36.29
2018-04-17T15:16:05.978Z,37.41
2018-04-17T15:18:36.716Z,39.19
2018-04-17T15:21:07.427Z,38.64
2018-04-17T15:23:36.232Z,37.03
2018-04-17T15:26:05.009Z,37.28
2018-04-17T15:28:35.710Z,35.54
2018-04-17T15:31:04.542Z,35.68
2018-04-17T15:33:33.209Z,37.28
2018-04-17T15:36:01.803Z,37.04
2018-04-17T15:38:30.498Z,37.65
2018-04-17T15:41:03.448Z,35.23
2018-04-17T15:43:32.331Z,36.08
2018-04-17T15:46:01.029Z,36.00
2018-04-17T15:48:32.241Z,37.18
2018-04-17T15:51:02.287Z,35.68
2018-04-17T15:53:30.914Z,35.19
2018-04-17T15:55:59.491Z,35.54
2018-04-17T15:58:27.952Z,36.14
2018-04-17T16:00:57.771Z,35.55
2018-04-17T16:03:25.989Z,35.74
2018-04-17T16:05:54.667Z,36.05
2018-04-17T16:08:23.458Z,35.71
2018-04-17T16:10:52.562Z,36.43
2018-04-17T16:13:21.364Z,36.14
2018-04-17T16:15:50.078Z,36.78
2018-04-17T16:18:22.455Z,37.05
2018-04-17T16:20:51.321Z,38.20
2018-04-17T16:23:20.009Z,38.85
2018-04-17T16:25:48.784Z,38.62
2018-04-17T16:28:18.879Z,39.90
2018-04-17T16:30:47.065Z,39.67
2018-04-17T16:33:15.985Z,39.31
2018-04-17T16:35:45.755Z,38.87
2018-04-17T16:38:14.592Z,41.09
2018-04-17T16:40:44.707Z,41.55
2018-04-17T16:43:13.392Z,41.22
2018-04-17T16:45:42.227Z,41.46
2018-04-17T16:48:12.029Z,41.34
2018-04-17T16:50:42.252Z,41.93
2018-04-17T16:53:13.591Z,41.42
2018-04-17T16:55:45.375Z,41.83
2018-04-17T16:58:18.142Z,42.07
2018-04-17T17:00:48.901Z,42.85
2018-04-17T17:03:22.798Z,42.29
2018-04-17T17:05:51.360Z,42.73
2018-04-17T17:08:20.178Z,42.49
2018-04-17T17:10:48.949Z,42.51
2018-04-17T17:13:20.090Z,42.29
2018-04-17T17:15:53.288Z,41.94
2018-04-17T17:18:24.848Z,43.35
2018-04-17T17:20:53.060Z,44.47
2018-04-17T17:23:21.916Z,44.59
2018-04-17T17:25:53.100Z,43.25
2018-04-17T17:28:21.963Z,44.25
2018-04-17T17:30:50.649Z,44.21
2018-04-17T17:33:19.353Z,43.68
2018-04-17T17:35:48.116Z,44.24
2018-04-17T17:38:19.851Z,44.62
2018-04-17T17:40:48.745Z,45.49
2018-04-17T17:43:17.569Z,45.63
2018-04-17T17:45:46.478Z,45.65
2018-04-17T17:48:14.719Z,46.19
2018-04-17T17:50:43.651Z,46.71
2018-04-17T17:53:13.355Z,46.87
2018-04-17T17:55:42.167Z,47.26
2018-04-17T17:58:11.661Z,47.50
2018-04-17T18:00:43.493Z,48.59
2018-04-17T18:03:13.445Z,48.88
2018-04-17T18:05:43.106Z,49.49
2018-04-17T18:08:12.771Z,50.26
2018-04-17T18:10:44.316Z,50.17
2018-04-17T18:13:13.576Z,49.76
2018-04-17T18:15:42.430Z,50.15
2018-04-17T18:18:11.323Z,51.56
2018-04-17T18:20:40.519Z,50.87
2018-04-17T18:23:10.628Z,51.86
2018-04-17T18:25:40.130Z,52.55
2018-04-17T18:28:08.850Z,52.98
2018-04-17T18:30:37.735Z,53.49
2018-04-17T18:33:06.529Z,55.36
2018-04-17T18:35:35.235Z,55.01
2018-04-17T18:38:04.121Z,56.05
2018-04-17T18:40:35.569Z,56.56
2018-04-17T18:43:04.462Z,56.77
2018-04-17T18:45:34.717Z,57.82
2018-04-17T18:48:03.423Z,57.31
2018-04-17T18:50:32.574Z,57.67
2018-04-17T18:56:07.164Z,58.60
2018-04-17T18:58:35.761Z,58.29
2018-04-17T19:01:05.404Z,59.09
2018-04-17T19:03:36.641Z,59.40
2018-04-17T19:06:05.457Z,60.48
2018-04-17T19:08:34.440Z,60.72
2018-04-17T19:11:08.597Z,61.29
2018-04-17T19:13:38.215Z,61.48
2018-04-17T19:16:07.085Z,62.69
2018-04-17T19:18:35.705Z,64.31
2018-04-17T19:21:07.308Z,64.75
2018-04-17T19:23:35.984Z,65.59
2018-04-17T19:26:07.852Z,65.64
2018-04-17T19:28:36.437Z,65.75
2018-04-17T19:31:05.232Z,65.27
2018-04-17T19:33:34.029Z,65.82
2018-04-17T19:36:03.811Z,66.42
2018-04-17T19:38:32.527Z,66.18
2018-04-17T19:41:04.804Z,67.08
2018-04-17T19:43:34.409Z,66.98
2018-04-17T19:46:04.350Z,67.86
2018-04-17T19:48:33.114Z,68.33
2018-04-17T19:51:05.148Z,67.82
2018-04-17T19:53:36.320Z,67.73
2018-04-17T19:56:07.765Z,68.86
2018-04-17T19:58:36.452Z,68.97
2018-04-17T20:01:06.501Z,68.90
2018-04-17T20:03:36.482Z,69.55
2018-04-17T20:06:05.820Z,70.37
2018-04-17T20:08:34.717Z,70.64
2018-04-17T20:11:03.472Z,71.07
2018-04-17T20:13:34.096Z,71.84
2018-04-17T20:16:02.836Z,72.06
2018-04-17T20:18:31.880Z,72.49
2018-04-17T20:21:00.940Z,73.51
2018-04-17T20:23:32.239Z,74.05
2018-04-17T20:26:02.398Z,73.89
2018-04-17T20:28:32.741Z,74.19
2018-04-17T20:31:04.721Z,74.11
2018-04-17T20:33:33.898Z,73.77
2018-04-17T20:36:04.555Z,73.27
2018-04-17T20:38:36.125Z,73.48
2018-04-17T20:41:04.836Z,73.69
2018-04-17T20:43:34.277Z,73.09
2018-04-17T20:46:03.172Z,72.61
2018-04-17T20:48:33.004Z,72.68
2018-04-17T20:51:01.833Z,73.35
2018-04-17T20:53:30.773Z,73.08
2018-04-17T20:56:02.554Z,73.32
2018-04-17T20:58:31.446Z,73.11
2018-04-17T21:01:01.708Z,72.39
2018-04-17T21:03:33.411Z,73.07
2018-04-17T21:06:05.802Z,72.80
2018-04-17T21:08:34.705Z,73.07
2018-04-17T21:11:06.238Z,72.68
2018-04-17T21:13:35.005Z,73.23
2018-04-17T21:16:03.725Z,73.31
2018-04-17T21:18:32.696Z,73.95
2018-04-17T21:21:01.391Z,74.18
2018-04-17T21:23:30.190Z,74.12
2018-04-17T21:25:58.983Z,74.45
2018-04-17T21:28:27.776Z,74.59
2018-04-17T21:30:56.463Z,75.01
2018-04-17T21:33:25.162Z,74.92
2018-04-17T21:35:54.915Z,74.88
2018-04-17T21:38:26.420Z,74.98
2018-04-17T21:40:55.211Z,74.97
2018-04-17T21:43:24.026Z,74.72
2018-04-17T21:45:54.502Z,75.72
2018-04-17T21:48:24.254Z,75.72
2018-04-17T21:50:55.712Z,75.96
2018-04-17T21:53:25.432Z,75.98
2018-04-17T21:55:55.159Z,75.94
2018-04-17T21:58:26.447Z,76.03
2018-04-17T22:01:00.359Z,76.56
2018-04-17T22:03:29.234Z,76.38
2018-04-17T22:05:57.869Z,76.34
2018-04-17T22:08:26.653Z,76.41
2018-04-17T22:10:55.411Z,77.08
2018-04-17T22:13:24.031Z,77.25
2018-04-17T22:15:52.922Z,77.29
2018-04-17T22:18:26.337Z,77.88
2018-04-17T22:20:55.322Z,77.97
2018-04-17T22:23:24.227Z,77.96
2018-04-17T22:25:53.896Z,78.38
2018-04-17T22:28:22.624Z,78.12
2018-04-17T22:30:52.306Z,77.82
2018-04-17T22:33:20.907Z,77.82
2018-04-17T22:35:49.513Z,78.57
2018-04-17T22:38:18.582Z,78.71
2018-04-17T22:40:50.986Z,79.29
2018-04-17T22:43:19.813Z,79.02
2018-04-17T22:45:48.740Z,79.02
2018-04-17T22:48:19.028Z,79.12
2018-04-17T22:50:53.308Z,78.93
2018-04-17T22:53:21.992Z,78.49
2018-04-17T22:55:50.795Z,78.63
2018-04-17T22:58:19.786Z,79.12
2018-04-17T23:00:48.436Z,78.85
2018-04-17T23:03:19.821Z,78.53
2018-04-17T23:05:51.390Z,78.55
2018-04-17T23:08:20.378Z,78.63
2018-04-17T23:10:49.147Z,78.50
2018-04-17T23:13:17.881Z,78.30
2018-04-17T23:15:48.677Z,78.61
2018-04-17T23:18:20.037Z,78.76
2018-04-17T23:20:48.710Z,78.78
2018-04-17T23:23:19.796Z,79.13
2018-04-17T23:25:48.478Z,79.65
2018-04-17T23:28:20.212Z,79.94
2018-04-17T23:30:48.918Z,79.71
2018-04-17T23:33:17.705Z,79.80
2018-04-17T23:35:47.410Z,79.96
2018-04-17T23:38:17.007Z,80.65
2018-04-17T23:40:45.630Z,81.43
2018-04-17T23:43:17.050Z,81.35
2018-04-17T23:45:48.131Z,81.10
2018-04-17T23:48:16.906Z,81.18
2018-04-17T23:50:45.618Z,81.16
2018-04-17T23:53:14.920Z,81.48
2018-04-17T23:55:43.756Z,81.24
2018-04-17T23:58:13.268Z,81.11
